createdAt,value
2019-02-19T00:03:59.232Z,100863.91
2019-02-19T00:09:04.652Z,100869.94
2019-02-19T00:14:07.993Z,100852.83
2019-02-19T00:19:10.894Z,100855.83
2019-02-19T00:24:14.407Z,100854.64
2019-02-19T00:29:17.217Z,100852.10
2019-02-19T00:34:20.766Z,100856.86
2019-02-19T00:39:23.629Z,100860.33
2019-02-19T00:44:28.678Z,100854.55
2019-02-19T00:49:31.286Z,100851.97
2019-02-19T00:54:34.495Z,100838.13
2019-02-19T00:59:37.699Z,100840.22
2019-02-19T01:04:41.939Z,100841.05
2019-02-19T01:09:45.300Z,100828.97
2019-02-19T01:14:48.149Z,100832.19
2019-02-19T01:19:50.739Z,100822.70
2019-02-19T01:24:53.959Z,100821.56
2019-02-19T01:29:56.771Z,100815.38
2019-02-19T01:35:00.309Z,100800.52
2019-02-19T01:40:05.267Z,100795.70
2019-02-19T01:45:08.984Z,100782.00
2019-02-19T01:50:12.162Z,100779.87
2019-02-19T01:55:15.776Z,100779.61
2019-02-19T02:00:18.988Z,100764.88
2019-02-19T02:05:22.480Z,100753.73
2019-02-19T02:10:26.033Z,100743.47
2019-02-19T02:15:31.072Z,100745.91
2019-02-19T02:20:34.269Z,100750.86
2019-02-19T02:25:37.484Z,100759.20
2019-02-19T02:30:41.014Z,100751.67
2019-02-19T02:35:44.328Z,100749.84
2019-02-19T02:40:47.838Z,100744.28
2019-02-19T02:45:53.705Z,100750.17
2019-02-19T02:50:55.848Z,100731.80
2019-02-19T02:55:59.019Z,100732.84
2019-02-19T03:01:02.511Z,100732.22
2019-02-19T03:06:14.040Z,100730.62
2019-02-19T03:11:17.241Z,100728.52
2019-02-19T03:16:20.449Z,100742.22
2019-02-19T03:21:23.973Z,100738.47
2019-02-19T03:26:27.176Z,100755.16
2019-02-19T03:31:29.993Z,100742.43
2019-02-19T03:36:33.564Z,100755.31
2019-02-19T03:41:37.027Z,100761.08
2019-02-19T03:46:40.535Z,100746.31
2019-02-19T03:51:43.681Z,100744.94
2019-02-19T03:56:46.887Z,100753.15
2019-02-19T04:01:50.086Z,100752.37
2019-02-19T04:06:53.346Z,100758.56
2019-02-19T04:11:56.920Z,100762.65
2019-02-19T04:17:00.080Z,100766.16
2019-02-19T04:22:03.602Z,100755.73
2019-02-19T04:27:06.772Z,100766.95
2019-02-19T04:32:11.492Z,100763.59
2019-02-19T04:37:15.061Z,100770.50
2019-02-19T04:42:18.225Z,100766.17
2019-02-19T04:47:20.717Z,100769.38
2019-02-19T04:52:23.987Z,100762.34
2019-02-19T04:57:27.177Z,100759.41
2019-02-19T05:02:30.438Z,100774.19
2019-02-19T05:07:34.126Z,100759.83
2019-02-19T05:17:46.207Z,100754.31
2019-02-19T05:22:49.404Z,100762.83
2019-02-19T05:27:52.278Z,100758.70
2019-02-19T05:32:55.576Z,100762.30
2019-02-19T05:37:58.833Z,100747.16
2019-02-19T05:43:04.556Z,100754.77
2019-02-19T05:48:08.095Z,100761.50
2019-02-19T05:53:10.975Z,100748.65
2019-02-19T05:58:13.819Z,100751.92
2019-02-19T06:03:17.374Z,100755.76
2019-02-19T06:08:20.342Z,100756.44
2019-02-19T06:13:23.659Z,100753.88
2019-02-19T06:18:26.867Z,100764.02
2019-02-19T06:23:30.099Z,100766.86
2019-02-19T06:28:33.077Z,100763.16
2019-02-19T06:33:36.001Z,100770.50
2019-02-19T06:38:39.313Z,100778.72
2019-02-19T06:43:42.148Z,100778.55
2019-02-19T06:48:45.407Z,100784.20
2019-02-19T06:53:48.902Z,100784.30
2019-02-19T06:58:51.384Z,100784.50
2019-02-19T07:04:01.282Z,100795.98
2019-02-19T07:09:05.414Z,100799.36
2019-02-19T07:14:08.495Z,100790.47
2019-02-19T07:19:11.733Z,100802.77
2019-02-19T07:24:14.582Z,100801.38
2019-02-19T07:29:18.033Z,100802.45
2019-02-19T07:34:20.950Z,100819.75
2019-02-19T07:39:24.376Z,100810.60
2019-02-19T07:44:27.225Z,100809.30
2019-02-19T07:49:30.479Z,100815.81
2019-02-19T07:54:33.895Z,100812.97
2019-02-19T07:59:37.015Z,100812.39
2019-02-19T08:04:40.564Z,100813.56
2019-02-19T08:09:44.033Z,100819.98
2019-02-19T08:14:47.561Z,100815.61
2019-02-19T08:19:50.461Z,100826.42
2019-02-19T08:24:54.246Z,100832.11
2019-02-19T08:29:57.796Z,100835.78
2019-02-19T08:35:01.006Z,100836.66
2019-02-19T08:40:04.338Z,100833.17
2019-02-19T08:45:07.901Z,100832.09
2019-02-19T08:50:11.148Z,100828.11
2019-02-19T08:55:13.956Z,100816.16
2019-02-19T09:00:19.972Z,100830.09
2019-02-19T09:05:23.223Z,100823.02
2019-02-19T09:10:26.448Z,100824.89
2019-02-19T09:15:29.694Z,100808.59
2019-02-19T09:20:32.569Z,100805.41
2019-02-19T09:25:35.721Z,100815.41
2019-02-19T09:30:38.996Z,100816.87
2019-02-19T09:35:44.455Z,100819.97
2019-02-19T09:40:47.943Z,100835.20
2019-02-19T09:45:51.253Z,100824.36
2019-02-19T09:50:54.857Z,100836.48
2019-02-19T09:55:58.519Z,100819.75
2019-02-19T10:01:01.728Z,100821.72
2019-02-19T10:06:04.591Z,100822.04
2019-02-19T10:11:07.854Z,100828.94
2019-02-19T10:16:11.305Z,100838.53
2019-02-19T10:21:14.869Z,100845.55
2019-02-19T10:26:18.089Z,100853.52
2019-02-19T10:31:21.337Z,100835.31
2019-02-19T10:36:24.252Z,100835.58
2019-02-19T10:41:27.244Z,100845.00
2019-02-19T10:46:30.112Z,100857.46
2019-02-19T10:51:33.196Z,100840.36
2019-02-19T10:56:36.268Z,100835.89
2019-02-19T11:01:39.874Z,100846.97
2019-02-19T11:06:43.301Z,100853.24
2019-02-19T11:11:46.629Z,100843.08
2019-02-19T11:16:49.556Z,100861.62
2019-02-19T11:21:52.781Z,100858.47
2019-02-19T11:26:56.510Z,100841.27
2019-02-19T11:31:59.156Z,100830.64
2019-02-19T11:37:02.399Z,100843.75
2019-02-19T11:42:05.429Z,100841.55
2019-02-19T11:47:08.975Z,100844.13
2019-02-19T11:52:12.444Z,100854.54
2019-02-19T11:57:16.010Z,100846.84
2019-02-19T12:02:18.964Z,100839.11
2019-02-19T12:07:21.864Z,100841.50
2019-02-19T12:12:25.081Z,100842.67
2019-02-19T12:17:28.729Z,100838.45
2019-02-19T12:22:31.540Z,100827.06
2019-02-19T12:27:34.365Z,100831.45
2019-02-19T12:32:38.026Z,100825.53
2019-02-19T12:37:41.554Z,100831.13
2019-02-19T12:42:44.030Z,100839.31
2019-02-19T12:47:47.205Z,100826.64
2019-02-19T12:52:50.163Z,100821.31
2019-02-19T12:57:53.000Z,100828.59
2019-02-19T13:02:56.396Z,100832.86
2019-02-19T13:07:59.263Z,100817.72
2019-02-19T13:13:02.474Z,100822.84
2019-02-19T13:18:05.773Z,100826.25
2019-02-19T13:23:08.776Z,100837.03
2019-02-19T13:28:12.291Z,100806.83
2019-02-19T13:33:15.832Z,100831.77
2019-02-19T13:38:18.851Z,100826.13
2019-02-19T13:43:22.407Z,100837.59
2019-02-19T13:48:25.770Z,100834.66
2019-02-19T13:53:35.799Z,100844.89
2019-02-19T13:58:39.037Z,100850.47
2019-02-19T14:03:41.953Z,100842.55
2019-02-19T14:08:44.844Z,100855.35
2019-02-19T14:14:03.388Z,100851.86
2019-02-19T14:19:28.249Z,100855.73
2019-02-19T14:24:38.919Z,100864.16
2019-02-19T14:29:56.684Z,100851.59
2019-02-19T14:35:31.631Z,100870.23
2019-02-19T14:41:00.128Z,100872.80
2019-02-19T14:46:28.643Z,100870.95
2019-02-19T14:51:51.180Z,100879.22
2019-02-19T14:57:02.390Z,100867.73
2019-02-19T15:02:27.827Z,100851.97
2019-02-19T15:07:50.043Z,100873.32
2019-02-19T15:13:03.932Z,100888.08
2019-02-19T15:18:32.369Z,100885.25
2019-02-19T15:23:48.559Z,100881.17
2019-02-19T15:29:03.535Z,100903.59
2019-02-19T15:34:41.164Z,100906.16
2019-02-19T15:39:52.878Z,100903.56
2019-02-19T15:45:15.447Z,100913.28
2019-02-19T15:50:37.808Z,100913.53
2019-02-19T15:56:17.205Z,100922.13
2019-02-19T16:01:42.066Z,100924.84
2019-02-19T16:06:50.820Z,100923.92
2019-02-19T16:12:25.599Z,100920.00
2019-02-19T16:17:48.954Z,100917.59
2019-02-19T16:23:10.378Z,100946.53
2019-02-19T16:28:43.204Z,100956.38
2019-02-19T16:34:08.453Z,100953.72
2019-02-19T16:39:34.347Z,100958.89
2019-02-19T16:45:12.165Z,100974.37
2019-02-19T16:50:43.431Z,100971.74
2019-02-19T16:56:05.310Z,100977.59
2019-02-19T17:01:27.800Z,100981.55
2019-02-19T17:06:40.161Z,100994.89
2019-02-19T17:11:55.358Z,100997.39
2019-02-19T17:17:16.229Z,101018.27
2019-02-19T17:22:35.890Z,101013.02
2019-02-19T17:27:51.595Z,101014.92
2019-02-19T17:33:19.987Z,101020.17
2019-02-19T17:38:43.265Z,101019.59
2019-02-19T17:43:58.044Z,101026.89
2019-02-19T17:49:19.187Z,101046.02
2019-02-19T17:54:57.013Z,101044.03
2019-02-19T18:00:21.435Z,101036.54
2019-02-19T18:05:44.193Z,101048.38
2019-02-19T18:11:07.841Z,101047.22
2019-02-19T18:16:31.520Z,101039.31
2019-02-19T18:21:45.153Z,101069.02
2019-02-19T18:26:49.639Z,101053.31
2019-02-19T18:31:53.146Z,101059.64
2019-02-19T18:36:57.104Z,101071.59
2019-02-19T18:42:00.975Z,101080.50
2019-02-19T18:47:04.492Z,101082.43
2019-02-19T18:52:09.076Z,101092.74
2019-02-19T18:57:13.142Z,101072.02
2019-02-19T19:02:17.861Z,101080.46
2019-02-19T19:07:24.359Z,101082.58
2019-02-19T19:12:31.272Z,101076.97
2019-02-19T19:17:36.606Z,101094.51
2019-02-19T19:22:42.490Z,101101.81
2019-02-19T19:27:48.741Z,101101.14
2019-02-19T19:32:54.550Z,101105.06
2019-02-19T19:37:58.474Z,101103.07
2019-02-19T19:43:04.142Z,101111.27
2019-02-19T19:48:09.147Z,101114.55
2019-02-19T19:53:16.348Z,101118.80
2019-02-19T19:58:22.071Z,101123.33
2019-02-19T20:03:27.885Z,101125.20
2019-02-19T20:08:33.969Z,101128.76
2019-02-19T20:13:41.479Z,101129.33
2019-02-19T20:18:47.048Z,101128.53
2019-02-19T20:23:54.461Z,101131.45
2019-02-19T20:28:58.890Z,101140.30
2019-02-19T20:34:06.067Z,101130.80
2019-02-19T20:39:13.122Z,101146.59
2019-02-19T20:44:18.612Z,101150.14
2019-02-19T20:49:25.874Z,101146.49
2019-02-19T20:54:32.534Z,101144.74
2019-02-19T20:59:39.164Z,101132.50
2019-02-19T21:04:46.144Z,101141.73
2019-02-19T21:09:52.646Z,101155.64
2019-02-19T21:14:59.298Z,101148.72
2019-02-19T21:20:04.413Z,101155.28
2019-02-19T21:25:09.538Z,101145.78
2019-02-19T21:30:14.412Z,101152.19
2019-02-19T21:35:18.738Z,101160.75
2019-02-19T21:40:23.496Z,101159.19
2019-02-19T21:45:27.725Z,101167.38
2019-02-19T21:50:31.707Z,101166.13
2019-02-19T21:55:36.051Z,101166.64
2019-02-19T22:00:39.673Z,101168.53
2019-02-19T22:05:43.450Z,101173.00
2019-02-19T22:10:46.955Z,101179.27
2019-02-19T22:15:50.441Z,101176.69
2019-02-19T22:21:08.083Z,101174.55
2019-02-19T22:26:11.392Z,101172.12
2019-02-19T22:31:14.634Z,101167.77
2019-02-19T22:36:17.507Z,101166.14
2019-02-19T22:41:21.062Z,101168.27
2019-02-19T22:46:24.334Z,101176.30
2019-02-19T22:51:27.574Z,101180.06
2019-02-19T22:56:33.650Z,101193.48
2019-02-19T23:01:51.509Z,101191.14
2019-02-19T23:06:54.717Z,101181.98
2019-02-19T23:11:57.939Z,101192.47
2019-02-19T23:17:01.441Z,101193.94
2019-02-19T23:22:04.424Z,101202.05
2019-02-19T23:27:07.363Z,101202.92
2019-02-19T23:32:10.252Z,101207.14
2019-02-19T23:37:24.631Z,101184.38
2019-02-19T23:42:27.866Z,101182.73
2019-02-19T23:47:31.327Z,101183.91
2019-02-19T23:52:34.313Z,101190.02
2019-02-19T23:57:37.259Z,101202.63
